createdAt,value
2019-04-22T00:01:34.536Z,1.83
2019-04-22T00:04:09.075Z,2.00
2019-04-22T00:06:58.376Z,1.90
2019-04-22T00:09:30.939Z,1.90
2019-04-22T00:12:06.088Z,1.97
2019-04-22T00:14:28.324Z,1.50
2019-04-22T00:19:43.323Z,1.77
2019-04-22T00:22:18.220Z,1.93
2019-04-22T00:24:46.340Z,1.90
2019-04-22T00:27:20.700Z,1.80
2019-04-22T00:32:24.278Z,2.40
2019-04-22T00:34:56.002Z,1.93
2019-04-22T00:37:29.985Z,1.97
2019-04-22T00:40:16.463Z,2.07
2019-04-22T00:42:29.224Z,1.90
2019-04-22T00:47:32.447Z,1.80
2019-04-22T00:50:18.969Z,2.00
2019-04-22T00:52:34.294Z,1.90
2019-04-22T00:57:41.541Z,2.03
2019-04-22T01:00:11.964Z,1.77
2019-04-22T01:02:41.596Z,2.20
2019-04-22T01:05:14.903Z,2.10
2019-04-22T01:07:44.547Z,2.13
2019-04-22T01:10:19.049Z,2.17
2019-04-22T01:12:44.360Z,2.00
2019-04-22T01:15:23.613Z,1.60
2019-04-22T01:17:53.012Z,2.20
2019-04-22T01:20:45.371Z,2.03
2019-04-22T01:22:52.154Z,2.37
2019-04-22T01:25:19.230Z,2.10
2019-04-22T01:27:48.877Z,2.17
2019-04-22T01:30:19.700Z,1.77
2019-04-22T01:32:41.825Z,2.17
2019-04-22T01:35:26.306Z,1.97
2019-04-22T01:37:58.218Z,1.80
2019-04-22T01:40:39.087Z,1.53
2019-04-22T01:43:14.726Z,2.07
2019-04-22T01:45:39.871Z,1.80
2019-04-22T01:48:11.174Z,1.73
2019-04-22T01:50:48.558Z,2.00
2019-04-22T01:53:22.254Z,1.77
2019-04-22T01:58:11.081Z,1.77
2019-04-22T02:00:53.456Z,1.67
2019-04-22T02:03:26.531Z,1.73
2019-04-22T02:05:56.566Z,2.00
2019-04-22T02:08:31.271Z,1.80
2019-04-22T02:10:54.802Z,1.70
2019-04-22T02:13:30.844Z,1.70
2019-04-22T02:16:03.510Z,1.60
2019-04-22T02:18:39.392Z,1.63
2019-04-22T02:21:01.710Z,1.70
2019-04-22T02:23:49.008Z,1.50
2019-04-22T02:26:12.660Z,1.80
2019-04-22T02:36:22.911Z,1.50
2019-04-22T02:39:08.004Z,1.50
2019-04-22T02:49:04.124Z,1.83
2019-04-22T02:51:28.539Z,2.10
2019-04-22T02:54:27.078Z,2.13
2019-04-22T03:06:34.680Z,1.40
2019-04-22T03:16:48.813Z,1.83
2019-04-22T03:26:48.968Z,2.00
2019-04-22T03:35:37.134Z,2.03
2019-04-22T03:40:22.418Z,2.37
2019-04-22T03:45:28.095Z,2.03
2019-04-22T03:47:53.588Z,2.00
2019-04-22T03:50:28.182Z,1.90
2019-04-22T03:52:56.569Z,2.20
2019-04-22T03:55:25.595Z,2.13
2019-04-22T03:57:53.637Z,2.03
2019-04-22T04:00:36.042Z,2.23
2019-04-22T04:05:37.647Z,2.47
2019-04-22T04:13:12.221Z,2.40
2019-04-22T04:15:32.798Z,2.47
2019-04-22T04:17:59.425Z,2.60
2019-04-22T04:20:36.901Z,2.17
2019-04-22T04:28:29.774Z,2.37
2019-04-22T04:30:42.867Z,2.23
2019-04-22T04:33:21.184Z,2.57
2019-04-22T04:38:12.488Z,2.23
2019-04-22T04:41:06.225Z,2.47
2019-04-22T04:43:33.234Z,2.53
2019-04-22T04:51:11.821Z,2.63
2019-04-22T04:55:51.753Z,2.70
2019-04-22T04:58:47.628Z,2.87
2019-04-22T05:03:39.244Z,2.67
2019-04-22T05:06:09.221Z,3.03
2019-04-22T05:08:54.410Z,2.50
2019-04-22T05:11:05.580Z,2.90
2019-04-22T05:13:39.723Z,2.70
2019-04-22T05:18:41.253Z,2.90
2019-04-22T05:23:50.569Z,2.90
2019-04-22T05:26:12.512Z,3.50
2019-04-22T05:28:35.234Z,3.10
2019-04-22T05:31:16.015Z,3.60
2019-04-22T05:33:46.028Z,3.47
2019-04-22T05:36:14.376Z,3.43
2019-04-22T05:38:50.139Z,3.23
2019-04-22T05:41:16.272Z,4.17
2019-04-22T05:43:50.058Z,3.47
2019-04-22T05:46:20.657Z,3.90
2019-04-22T05:48:53.913Z,3.80
2019-04-22T05:51:23.947Z,4.43
2019-04-22T05:53:53.903Z,3.70
2019-04-22T05:56:27.793Z,4.13
2019-04-22T05:58:58.239Z,3.60
2019-04-22T06:04:03.937Z,3.80
2019-04-22T06:06:32.374Z,3.77
2019-04-22T06:11:29.481Z,3.90
2019-04-22T06:14:04.505Z,3.83
2019-04-22T06:16:38.149Z,4.03
2019-04-22T06:19:12.576Z,3.57
2019-04-22T06:21:38.328Z,3.40
2019-04-22T06:24:16.720Z,3.67
2019-04-22T06:27:01.533Z,3.83
2019-04-22T06:29:15.932Z,3.10
2019-04-22T06:32:10.909Z,3.20
2019-04-22T06:34:17.679Z,3.37
2019-04-22T06:36:51.077Z,2.80
2019-04-22T06:39:24.239Z,2.80
2019-04-22T06:44:25.969Z,3.23
2019-04-22T06:46:52.619Z,3.20
2019-04-22T06:49:33.430Z,2.77
2019-04-22T06:51:53.717Z,2.90
2019-04-22T06:54:28.316Z,2.70
2019-04-22T07:02:04.032Z,2.90
2019-04-22T07:04:30.366Z,2.50
2019-04-22T07:07:02.246Z,2.43
2019-04-22T07:12:06.404Z,3.07
2019-04-22T07:14:35.193Z,2.50
2019-04-22T07:17:07.508Z,3.10
2019-04-22T07:19:37.165Z,3.10
2019-04-22T07:24:47.851Z,2.73
2019-04-22T07:27:14.666Z,3.30
2019-04-22T07:29:46.790Z,3.30
2019-04-22T07:32:15.351Z,3.40
2019-04-22T07:37:28.302Z,2.60
2019-04-22T07:40:03.240Z,2.87
2019-04-22T07:42:24.559Z,2.87
2019-04-22T07:45:01.114Z,2.73
2019-04-22T07:47:37.765Z,2.50
2019-04-22T07:49:59.437Z,3.00
2019-04-22T07:52:27.844Z,3.07
2019-04-22T07:54:58.327Z,2.77
2019-04-22T07:57:47.157Z,2.90
2019-04-22T08:00:04.101Z,2.70
2019-04-22T08:02:39.162Z,2.60
2019-04-22T08:07:34.630Z,2.80
2019-04-22T08:12:38.981Z,2.53
2019-04-22T08:15:06.072Z,2.43
2019-04-22T08:20:16.634Z,2.10
2019-04-22T08:22:47.663Z,2.00
2019-04-22T08:25:12.561Z,1.67
2019-04-22T08:27:46.746Z,1.77
2019-04-22T08:30:23.597Z,2.40
2019-04-22T08:32:48.930Z,1.80
2019-04-22T08:35:20.255Z,1.50
2019-04-22T08:37:51.225Z,1.60
2019-04-22T08:42:56.766Z,1.80
2019-04-22T08:45:31.783Z,1.67
2019-04-22T08:47:55.312Z,1.80
2019-04-22T08:50:29.829Z,1.80
2019-04-22T08:53:05.757Z,1.53
2019-04-22T08:55:31.350Z,1.70
2019-04-22T08:58:16.070Z,1.67
2019-04-22T09:00:39.756Z,1.70
2019-04-22T09:03:04.642Z,1.83
2019-04-22T09:13:10.225Z,1.77
2019-04-22T09:15:45.108Z,1.60
2019-04-22T09:18:17.627Z,1.60
2019-04-22T09:20:48.681Z,2.57
2019-04-22T09:23:17.702Z,1.80
2019-04-22T09:25:48.473Z,1.97
2019-04-22T09:28:23.069Z,2.33
2019-04-22T09:31:01.546Z,2.67
2019-04-22T09:36:33.897Z,2.00
2019-04-22T09:39:19.380Z,1.67
2019-04-22T09:41:33.759Z,2.27
2019-04-22T09:46:36.153Z,2.10
2019-04-22T09:49:06.446Z,2.10
2019-04-22T09:51:36.948Z,1.90
2019-04-22T09:59:07.729Z,1.93
2019-04-22T10:01:40.978Z,1.90
2019-04-22T10:04:25.365Z,2.37
2019-04-22T10:06:54.776Z,2.00
2019-04-22T10:09:34.356Z,1.80
2019-04-22T10:12:02.425Z,1.60
2019-04-22T10:14:23.911Z,1.67
2019-04-22T10:16:50.719Z,1.60
2019-04-22T10:19:23.243Z,1.73
2019-04-22T10:24:21.561Z,2.17
2019-04-22T10:26:59.994Z,1.90
2019-04-22T10:29:24.826Z,1.67
2019-04-22T10:34:16.864Z,1.77
2019-04-22T10:36:37.859Z,2.00
2019-04-22T10:39:08.555Z,1.77
2019-04-22T10:41:38.952Z,1.70
2019-04-22T10:44:09.031Z,2.03
2019-04-22T10:46:40.131Z,2.10
2019-04-22T10:49:10.470Z,1.77
2019-04-22T10:51:40.456Z,1.70
2019-04-22T10:54:11.355Z,2.03
2019-04-22T10:56:41.227Z,2.00
2019-04-22T10:59:10.973Z,2.03
2019-04-22T11:01:40.623Z,2.40
2019-04-22T11:04:11.194Z,2.23
2019-04-22T11:06:50.706Z,1.67
2019-04-22T11:09:12.884Z,2.33
2019-04-22T11:11:52.106Z,2.33
2019-04-22T11:14:16.753Z,2.20
2019-04-22T11:16:47.684Z,2.10
2019-04-22T11:19:17.443Z,2.43
2019-04-22T11:21:57.925Z,2.57
2019-04-22T11:24:18.853Z,1.50
2019-04-22T11:26:49.321Z,2.00
2019-04-22T11:29:19.547Z,2.43
2019-04-22T11:31:50.513Z,2.30
2019-04-22T11:34:21.327Z,2.03
2019-04-22T11:36:52.595Z,2.20
2019-04-22T11:39:23.708Z,2.80
2019-04-22T11:41:53.942Z,2.30
2019-04-22T11:44:25.282Z,2.47
2019-04-22T11:46:55.259Z,2.30
2019-04-22T11:49:25.851Z,2.60
2019-04-22T11:51:56.072Z,2.17
2019-04-22T11:54:25.903Z,1.93
2019-04-22T11:56:56.854Z,1.90
2019-04-22T11:59:26.819Z,2.00
2019-04-22T12:01:57.039Z,1.67
2019-04-22T12:04:27.644Z,1.80
2019-04-22T12:06:57.989Z,1.80
2019-04-22T12:09:28.037Z,2.33
2019-04-22T12:11:58.065Z,1.87
2019-04-22T12:14:27.981Z,2.10
2019-04-22T12:16:57.592Z,1.70
2019-04-22T12:19:27.212Z,2.10
2019-04-22T12:21:57.243Z,1.50
2019-04-22T12:24:28.107Z,1.97
2019-04-22T12:26:58.262Z,1.67
2019-04-22T12:29:28.966Z,1.60
2019-04-22T12:31:59.678Z,1.70
2019-04-22T12:34:29.436Z,1.33
2019-04-22T12:37:00.386Z,1.80
2019-04-22T12:39:31.517Z,1.57
2019-04-22T12:42:02.502Z,1.80
2019-04-22T12:44:32.736Z,2.00
2019-04-22T12:47:04.359Z,1.87
2019-04-22T12:49:36.995Z,1.70
2019-04-22T12:52:05.571Z,1.80
2019-04-22T12:54:37.331Z,1.60
2019-04-22T12:57:07.118Z,1.50
2019-04-22T12:59:37.401Z,1.50
2019-04-22T13:02:09.165Z,1.67
2019-04-22T13:04:40.441Z,1.80
2019-04-22T13:07:11.394Z,1.80
2019-04-22T13:09:41.315Z,1.77
2019-04-22T13:12:11.093Z,1.67
2019-04-22T13:14:41.038Z,1.87
2019-04-22T13:17:12.203Z,2.17
2019-04-22T13:19:42.444Z,2.13
2019-04-22T13:22:12.647Z,1.70
2019-04-22T13:24:43.865Z,1.80
2019-04-22T13:27:14.940Z,2.07
2019-04-22T13:29:46.611Z,1.70
2019-04-22T13:32:16.547Z,2.20
2019-04-22T13:34:51.522Z,2.00
2019-04-22T13:37:19.149Z,2.70
2019-04-22T13:39:52.722Z,1.77
2019-04-22T13:42:24.067Z,1.90
2019-04-22T13:44:54.027Z,2.13
2019-04-22T13:47:41.958Z,2.13
2019-04-22T13:50:28.295Z,2.00
2019-04-22T13:52:55.024Z,2.73
2019-04-22T13:55:27.270Z,2.03
2019-04-22T13:57:45.371Z,2.13
2019-04-22T14:00:02.244Z,1.90
2019-04-22T14:02:50.770Z,1.83
2019-04-22T14:05:22.432Z,1.73
2019-04-22T14:07:55.250Z,2.10
2019-04-22T14:10:24.858Z,2.60
2019-04-22T14:12:55.086Z,1.80
2019-04-22T14:15:25.064Z,1.60
2019-04-22T14:17:54.798Z,1.63
2019-04-22T14:20:27.710Z,1.30
2019-04-22T14:22:56.742Z,1.73
2019-04-22T14:25:26.499Z,1.77
2019-04-22T14:28:01.925Z,1.40
2019-04-22T14:30:28.602Z,1.70
2019-04-22T14:32:58.447Z,1.57
2019-04-22T14:35:29.164Z,2.00
2019-04-22T14:38:01.298Z,1.30
2019-04-22T14:41:00.862Z,1.13
2019-04-22T14:43:59.972Z,2.60
2019-04-22T14:46:30.211Z,1.60
2019-04-22T14:48:56.000Z,1.67
2019-04-22T14:51:25.483Z,2.40
2019-04-22T14:53:56.649Z,1.80
2019-04-22T14:56:08.559Z,4.03
2019-04-22T14:58:39.009Z,2.00
2019-04-22T15:01:10.777Z,1.70
2019-04-22T15:03:44.059Z,1.47
2019-04-22T15:06:12.619Z,2.57
2019-04-22T15:08:42.792Z,1.93
2019-04-22T15:11:13.106Z,2.20
2019-04-22T15:13:43.416Z,2.77
2019-04-22T15:16:46.941Z,1.73
2019-04-22T15:19:25.923Z,2.30
2019-04-22T15:21:56.806Z,4.10
2019-04-22T15:24:27.498Z,31.17
2019-04-22T15:26:58.742Z,14.60
2019-04-22T15:29:29.632Z,9.17
2019-04-22T15:47:24.967Z,2.30
2019-04-22T15:50:05.986Z,1.87
2019-04-22T15:52:40.707Z,2.13
2019-04-22T15:55:09.015Z,1.90
2019-04-22T15:57:39.885Z,2.40
2019-04-22T16:00:22.551Z,2.10
2019-04-22T16:02:41.465Z,2.30
2019-04-22T16:05:13.099Z,2.00
2019-04-22T16:07:43.966Z,2.30
2019-04-22T16:10:15.440Z,2.40
2019-04-22T16:12:56.480Z,2.33
2019-04-22T16:15:18.326Z,3.27
2019-04-22T16:17:48.845Z,2.77
2019-04-22T16:20:19.269Z,3.23
2019-04-22T16:23:13.347Z,3.53
2019-04-22T16:26:11.771Z,2.90
2019-04-22T16:28:43.058Z,2.23
2019-04-22T16:31:13.450Z,2.43
2019-04-22T16:33:45.684Z,2.50
2019-04-22T16:36:14.656Z,2.50
2019-04-22T16:38:45.007Z,2.57
2019-04-22T16:41:14.819Z,3.37
2019-04-22T16:43:44.703Z,2.80
2019-04-22T16:46:15.792Z,2.77
2019-04-22T16:48:45.725Z,2.87
2019-04-22T16:51:16.265Z,2.87
2019-04-22T16:53:47.362Z,3.40
2019-04-22T16:56:17.215Z,3.00
2019-04-22T16:58:46.815Z,3.03
2019-04-22T17:01:34.834Z,3.00
2019-04-22T17:04:14.575Z,3.27
2019-04-22T17:06:45.492Z,3.00
2019-04-22T17:09:17.485Z,3.03
2019-04-22T17:11:47.949Z,3.50
2019-04-22T17:14:25.420Z,3.30
2019-04-22T17:16:50.603Z,3.33
2019-04-22T17:19:21.667Z,3.30
2019-04-22T17:21:51.411Z,3.43
2019-04-22T17:24:21.637Z,4.03
2019-04-22T17:26:52.598Z,3.90
2019-04-22T17:29:22.813Z,3.90
2019-04-22T17:31:58.457Z,3.90
2019-04-22T17:34:23.796Z,4.07
2019-04-22T17:36:53.339Z,4.07
2019-04-22T17:39:35.947Z,4.07
2019-04-22T17:42:15.702Z,4.00
2019-04-22T17:44:48.076Z,3.77
2019-04-22T17:47:36.985Z,4.40
2019-04-22T17:50:20.270Z,4.00
2019-04-22T17:52:51.198Z,4.23
2019-04-22T17:55:21.396Z,4.60
2019-04-22T17:57:49.232Z,4.77
2019-04-22T18:00:19.035Z,4.67
2019-04-22T18:02:48.664Z,4.47
2019-04-22T18:05:09.216Z,4.50
2019-04-22T18:07:54.490Z,4.63
2019-04-22T18:10:32.900Z,4.90
2019-04-22T18:13:07.195Z,5.03
2019-04-22T18:15:35.334Z,4.50
2019-04-22T18:18:09.107Z,4.80
2019-04-22T18:20:29.331Z,4.30
2019-04-22T18:22:56.740Z,4.97
2019-04-22T18:25:34.095Z,4.53
2019-04-22T18:30:34.734Z,5.27
2019-04-22T18:33:12.970Z,4.10
2019-04-22T18:35:39.355Z,4.60
2019-04-22T18:38:28.018Z,4.30
2019-04-22T18:40:44.797Z,4.50
2019-04-22T18:43:26.079Z,4.70
2019-04-22T18:45:54.545Z,5.60
2019-04-22T18:48:15.352Z,4.47
2019-04-22T18:51:06.572Z,4.40
2019-04-22T18:53:53.803Z,4.00
2019-04-22T18:56:37.597Z,4.40
2019-04-22T18:58:54.922Z,4.10
2019-04-22T19:01:15.522Z,4.40
2019-04-22T19:03:55.230Z,4.30
2019-04-22T19:09:11.246Z,4.30
2019-04-22T19:11:43.391Z,4.13
2019-04-22T19:14:10.733Z,4.07
2019-04-22T19:17:07.093Z,4.00
2019-04-22T19:21:47.688Z,4.03
2019-04-22T19:24:14.949Z,4.50
2019-04-22T19:26:55.466Z,3.83
2019-04-22T19:29:18.621Z,3.87
2019-04-22T19:31:52.617Z,3.67
2019-04-22T19:34:20.595Z,3.30
2019-04-22T19:36:57.267Z,3.73
2019-04-22T19:39:22.785Z,3.53
2019-04-22T19:42:01.889Z,3.70
2019-04-22T19:44:34.267Z,3.80
2019-04-22T19:47:21.211Z,3.80
2019-04-22T19:49:38.298Z,3.60
2019-04-22T19:52:11.456Z,3.70
2019-04-22T19:54:40.703Z,3.63
2019-04-22T19:57:07.197Z,3.40
2019-04-22T19:59:42.674Z,4.03
2019-04-22T20:02:23.579Z,3.67
2019-04-22T20:05:11.081Z,3.70
2019-04-22T20:07:39.507Z,3.47
2019-04-22T20:10:19.099Z,3.63
2019-04-22T20:12:47.150Z,3.90
2019-04-22T20:15:14.234Z,4.00
2019-04-22T20:18:11.391Z,3.80
2019-04-22T20:20:22.799Z,3.67
2019-04-22T20:22:50.623Z,3.90
2019-04-22T20:25:14.568Z,3.20
2019-04-22T20:28:00.030Z,4.40
2019-04-22T20:30:29.978Z,3.77
2019-04-22T20:32:56.611Z,4.13
2019-04-22T20:35:32.735Z,4.00
2019-04-22T20:38:02.922Z,3.83
2019-04-22T20:40:33.157Z,4.10
2019-04-22T20:43:07.656Z,3.63
2019-04-22T20:45:39.986Z,4.67
2019-04-22T20:47:58.836Z,4.07
2019-04-22T20:50:41.236Z,3.07
2019-04-22T20:53:18.612Z,4.27
2019-04-22T20:55:41.976Z,4.57
2019-04-22T20:58:18.167Z,4.10
2019-04-22T21:00:45.331Z,4.50
2019-04-22T21:03:11.579Z,4.00
2019-04-22T21:05:44.490Z,4.50
2019-04-22T21:08:23.874Z,4.73
2019-04-22T21:10:45.592Z,4.20
2019-04-22T21:13:20.472Z,4.30
2019-04-22T21:16:04.083Z,4.23
2019-04-22T21:18:25.353Z,4.70
2019-04-22T21:21:02.542Z,4.33
2019-04-22T21:23:26.458Z,4.50
2019-04-22T21:26:02.307Z,4.50
2019-04-22T21:28:36.744Z,4.57
2019-04-22T21:31:05.806Z,5.40
2019-04-22T21:33:31.460Z,4.60
2019-04-22T21:36:16.856Z,4.77
2019-04-22T21:38:39.988Z,4.50
2019-04-22T21:41:12.941Z,4.97
2019-04-22T21:49:31.078Z,5.13
2019-04-22T21:51:58.423Z,5.37
2019-04-22T21:54:34.434Z,4.63
2019-04-22T21:57:35.622Z,5.60
2019-04-22T21:59:54.429Z,6.30
2019-04-22T22:02:39.297Z,5.30
2019-04-22T22:04:49.067Z,4.80
2019-04-22T22:07:13.225Z,5.23
2019-04-22T22:09:53.963Z,5.07
2019-04-22T22:12:34.991Z,5.40
2019-04-22T22:15:04.072Z,5.20
2019-04-22T22:17:31.208Z,5.73
2019-04-22T22:19:57.534Z,5.13
2019-04-22T22:22:45.494Z,5.63
2019-04-22T22:25:02.852Z,5.23
2019-04-22T22:27:37.184Z,5.40
2019-04-22T22:30:34.859Z,5.83
2019-04-22T22:32:40.743Z,5.40
2019-04-22T22:35:16.461Z,5.17
2019-04-22T22:37:37.520Z,5.93
2019-04-22T22:40:01.201Z,5.53
2019-04-22T22:42:33.620Z,5.57
2019-04-22T22:45:07.764Z,5.63
2019-04-22T22:47:44.590Z,5.70
2019-04-22T22:50:20.582Z,5.60
2019-04-22T22:53:00.900Z,6.10
2019-04-22T22:55:22.023Z,6.37
2019-04-22T22:58:01.354Z,5.77
2019-04-22T23:00:24.548Z,6.23
2019-04-22T23:03:17.075Z,5.93
2019-04-22T23:05:35.532Z,5.70
2019-04-22T23:08:01.977Z,6.10
2019-04-22T23:10:44.332Z,5.40
2019-04-22T23:13:08.593Z,5.80
2019-04-22T23:15:27.536Z,5.47
2019-04-22T23:17:45.889Z,6.00
2019-04-22T23:20:26.671Z,5.77
2019-04-22T23:23:14.321Z,5.90
2019-04-22T23:25:48.155Z,6.87
2019-04-22T23:28:30.052Z,5.60
2019-04-22T23:31:23.585Z,7.40
2019-04-22T23:34:02.911Z,6.60
2019-04-22T23:36:56.413Z,6.37
2019-04-22T23:39:33.323Z,6.37
2019-04-22T23:42:06.260Z,6.60
2019-04-22T23:44:31.929Z,6.73
2019-04-22T23:47:08.519Z,6.97
2019-04-22T23:49:43.195Z,6.50
2019-04-22T23:52:22.743Z,6.40
2019-04-22T23:54:58.740Z,6.80
2019-04-22T23:57:33.227Z,6.83
